createdAt,value
2019-04-26T00:02:05.590Z,4.30
2019-04-26T00:04:33.009Z,4.03
2019-04-26T00:07:00.457Z,4.23
2019-04-26T00:09:27.859Z,4.17
2019-04-26T00:12:14.390Z,4.30
2019-04-26T00:14:43.640Z,4.30
2019-04-26T00:17:11.545Z,4.30
2019-04-26T00:19:38.490Z,3.90
2019-04-26T00:22:05.947Z,4.27
2019-04-26T00:24:33.378Z,3.87
2019-04-26T00:27:00.829Z,3.70
2019-04-26T00:29:28.228Z,3.63
2019-04-26T00:31:55.638Z,4.00
2019-04-26T00:34:23.107Z,3.90
2019-04-26T00:36:50.562Z,3.97
2019-04-26T00:39:18.239Z,3.93
2019-04-26T00:41:45.393Z,4.37
2019-04-26T00:44:13.856Z,4.13
2019-04-26T00:46:40.273Z,3.90
2019-04-26T00:49:07.726Z,4.10
2019-04-26T00:51:35.164Z,4.10
2019-04-26T00:54:02.572Z,3.80
2019-04-26T00:56:30.043Z,4.00
2019-04-26T00:58:57.445Z,3.60
2019-04-26T01:01:24.991Z,3.93
2019-04-26T01:03:52.344Z,3.90
2019-04-26T01:06:20.873Z,3.87
2019-04-26T01:08:47.197Z,4.13
2019-04-26T01:11:16.213Z,4.30
2019-04-26T01:13:42.041Z,3.93
2019-04-26T01:16:09.501Z,4.30
2019-04-26T01:18:36.907Z,4.73
2019-04-26T01:21:05.538Z,4.30
2019-04-26T01:23:32.924Z,4.97
2019-04-26T01:26:00.375Z,5.10
2019-04-26T01:28:33.460Z,4.60
2019-04-26T01:31:00.865Z,4.73
2019-04-26T01:33:28.342Z,5.00
2019-04-26T01:35:55.744Z,4.83
2019-04-26T01:38:23.657Z,4.80
2019-04-26T01:40:50.634Z,5.30
2019-04-26T01:43:24.416Z,5.17
2019-04-26T01:45:54.132Z,5.87
2019-04-26T01:48:45.805Z,4.70
2019-04-26T01:51:13.212Z,5.13
2019-04-26T01:53:40.656Z,5.60
2019-04-26T01:56:08.072Z,5.77
2019-04-26T01:58:35.502Z,6.07
2019-04-26T02:01:02.982Z,5.77
2019-04-26T02:03:30.442Z,5.77
2019-04-26T02:05:57.838Z,5.77
2019-04-26T02:08:26.253Z,6.10
2019-04-26T02:10:52.731Z,6.33
2019-04-26T02:13:20.135Z,5.90
2019-04-26T02:15:47.578Z,6.50
2019-04-26T02:18:14.989Z,6.43
2019-04-26T02:20:51.618Z,6.80
2019-04-26T02:23:19.024Z,5.83
2019-04-26T02:25:46.461Z,6.23
2019-04-26T02:28:13.875Z,6.83
2019-04-26T02:30:41.310Z,6.27
2019-04-26T02:33:08.723Z,6.17
2019-04-26T02:35:36.176Z,6.37
2019-04-26T02:38:03.637Z,6.40
2019-04-26T02:40:31.845Z,5.90
2019-04-26T02:42:58.558Z,5.93
2019-04-26T02:45:40.333Z,6.10
2019-04-26T02:48:07.791Z,5.77
2019-04-26T02:50:38.461Z,5.57
2019-04-26T02:53:20.373Z,6.20
2019-04-26T02:56:05.883Z,6.40
2019-04-26T02:58:42.203Z,6.53
2019-04-26T03:01:09.651Z,6.40
2019-04-26T03:03:38.293Z,6.30
2019-04-26T03:06:04.539Z,6.10
2019-04-26T03:08:33.396Z,6.20
2019-04-26T03:10:59.387Z,6.03
2019-04-26T03:13:26.831Z,6.13
2019-04-26T03:15:54.258Z,6.37
2019-04-26T03:18:32.821Z,6.30
2019-04-26T03:21:03.219Z,6.40
2019-04-26T03:23:57.685Z,6.37
2019-04-26T03:26:16.374Z,6.13
2019-04-26T03:28:49.662Z,6.23
2019-04-26T03:31:22.710Z,6.50
2019-04-26T03:34:08.453Z,6.23
2019-04-26T03:37:20.079Z,6.20
2019-04-26T03:39:51.028Z,6.37
2019-04-26T03:42:34.316Z,6.03
2019-04-26T03:45:02.873Z,6.37
2019-04-26T03:47:30.309Z,6.67
2019-04-26T03:50:12.863Z,5.87
2019-04-26T03:52:44.125Z,6.60
2019-04-26T03:55:25.455Z,6.73
2019-04-26T03:58:01.706Z,6.33
2019-04-26T04:00:43.400Z,6.07
2019-04-26T04:03:18.807Z,6.27
2019-04-26T04:05:47.788Z,6.10
2019-04-26T04:08:13.695Z,6.50
2019-04-26T04:10:47.661Z,6.37
2019-04-26T04:13:19.883Z,7.00
2019-04-26T04:15:48.491Z,6.43
2019-04-26T04:18:17.322Z,6.87
2019-04-26T04:21:14.735Z,6.77
2019-04-26T04:23:48.776Z,7.10
2019-04-26T04:26:15.294Z,6.60
2019-04-26T04:28:46.488Z,6.00
2019-04-26T04:31:30.439Z,6.70
2019-04-26T04:34:06.349Z,7.03
2019-04-26T04:36:33.776Z,6.40
2019-04-26T04:39:16.069Z,6.23
2019-04-26T04:42:07.542Z,6.10
2019-04-26T04:45:07.766Z,6.90
2019-04-26T04:48:14.844Z,6.50
2019-04-26T04:50:43.142Z,6.70
2019-04-26T04:53:12.589Z,6.57
2019-04-26T04:55:52.094Z,7.03
2019-04-26T04:58:24.657Z,6.80
2019-04-26T05:01:16.326Z,6.90
2019-04-26T05:03:46.955Z,6.43
2019-04-26T05:06:16.423Z,6.67
2019-04-26T05:08:51.229Z,7.03
2019-04-26T05:11:25.353Z,7.13
2019-04-26T05:13:55.221Z,8.00
2019-04-26T05:16:28.186Z,7.00
2019-04-26T05:19:25.978Z,7.00
2019-04-26T05:21:59.213Z,7.37
2019-04-26T05:24:51.244Z,7.30
2019-04-26T05:27:26.773Z,6.50
2019-04-26T05:30:11.787Z,7.57
2019-04-26T05:32:48.709Z,7.23
2019-04-26T05:35:21.755Z,7.27
2019-04-26T05:38:01.014Z,6.73
2019-04-26T05:40:40.608Z,7.30
2019-04-26T05:43:17.321Z,6.70
2019-04-26T05:45:53.919Z,6.67
2019-04-26T05:48:45.936Z,6.77
2019-04-26T05:51:34.328Z,6.07
2019-04-26T05:54:31.651Z,7.00
2019-04-26T05:57:07.740Z,6.53
2019-04-26T05:59:35.194Z,6.40
2019-04-26T06:02:26.910Z,6.13
2019-04-26T06:05:08.696Z,7.03
2019-04-26T06:07:50.898Z,6.53
2019-04-26T06:10:36.518Z,6.90
2019-04-26T06:13:06.550Z,7.10
2019-04-26T06:15:45.887Z,6.50
2019-04-26T06:18:39.903Z,7.23
2019-04-26T06:21:13.212Z,7.27
2019-04-26T06:23:40.642Z,7.07
2019-04-26T06:26:37.629Z,7.37
2019-04-26T06:29:10.856Z,7.07
2019-04-26T06:31:43.966Z,7.83
2019-04-26T06:34:11.374Z,7.60
2019-04-26T06:36:38.840Z,7.37
2019-04-26T06:39:09.221Z,7.87
2019-04-26T06:42:04.962Z,7.17
2019-04-26T06:44:43.101Z,7.13
2019-04-26T06:47:16.003Z,7.60
2019-04-26T06:50:05.523Z,7.40
2019-04-26T06:52:31.975Z,7.13
2019-04-26T06:54:59.740Z,7.80
2019-04-26T06:58:01.002Z,6.70
2019-04-26T07:00:54.313Z,6.20
2019-04-26T07:03:27.779Z,6.60
2019-04-26T07:05:58.913Z,6.10
2019-04-26T07:08:37.346Z,5.70
2019-04-26T07:11:56.189Z,5.30
2019-04-26T07:14:42.047Z,6.10
2019-04-26T07:17:09.454Z,5.90
2019-04-26T07:20:22.325Z,5.53
2019-04-26T07:23:13.535Z,5.70
2019-04-26T07:26:14.358Z,4.53
2019-04-26T07:28:47.251Z,4.80
2019-04-26T07:31:44.769Z,5.30
2019-04-26T07:34:14.838Z,5.37
2019-04-26T07:36:51.217Z,4.93
2019-04-26T07:39:36.098Z,5.60
2019-04-26T07:42:46.173Z,4.63
2019-04-26T07:45:31.804Z,5.00
2019-04-26T07:48:16.857Z,4.57
2019-04-26T07:50:52.972Z,5.33
2019-04-26T07:53:29.469Z,5.10
2019-04-26T07:56:03.881Z,4.97
2019-04-26T07:59:08.680Z,6.13
2019-04-26T08:01:49.539Z,5.90
2019-04-26T08:04:17.059Z,5.53
2019-04-26T08:07:02.717Z,5.03
2019-04-26T08:09:30.167Z,4.63
2019-04-26T08:11:57.610Z,4.43
2019-04-26T08:14:36.830Z,4.43
2019-04-26T08:17:16.131Z,4.27
2019-04-26T08:19:49.262Z,3.70
2019-04-26T08:22:21.815Z,3.97
2019-04-26T08:24:44.201Z,3.90
2019-04-26T08:27:18.765Z,4.37
2019-04-26T08:29:39.037Z,4.30
2019-04-26T08:32:06.992Z,4.67
2019-04-26T08:34:33.934Z,4.73
2019-04-26T08:37:01.815Z,3.90
2019-04-26T08:39:44.301Z,3.90
2019-04-26T08:41:56.223Z,3.43
2019-04-26T08:44:34.532Z,3.43
2019-04-26T08:47:00.158Z,3.10
2019-04-26T08:49:39.193Z,3.27
2019-04-26T08:52:13.951Z,3.20
2019-04-26T08:54:32.700Z,3.20
2019-04-26T08:56:59.016Z,2.80
2019-04-26T08:59:29.146Z,3.07
2019-04-26T09:01:56.606Z,2.97
2019-04-26T09:04:26.930Z,2.53
2019-04-26T09:07:03.090Z,2.60
2019-04-26T09:09:32.382Z,2.90
2019-04-26T09:11:59.701Z,2.53
2019-04-26T09:14:25.387Z,2.53
2019-04-26T09:16:52.792Z,2.70
2019-04-26T09:19:20.205Z,3.13
2019-04-26T09:21:51.856Z,2.63
2019-04-26T09:24:21.073Z,2.50
2019-04-26T09:26:51.229Z,2.77
2019-04-26T09:29:18.709Z,2.73
2019-04-26T09:31:54.463Z,2.60
2019-04-26T09:34:19.780Z,3.00
2019-04-26T09:36:47.232Z,2.40
2019-04-26T09:39:14.632Z,2.37
2019-04-26T09:41:42.059Z,2.70
2019-04-26T09:44:24.513Z,2.50
2019-04-26T09:47:04.131Z,2.17
2019-04-26T09:49:31.533Z,2.40
2019-04-26T09:51:58.931Z,1.90
2019-04-26T09:54:26.406Z,1.90
2019-04-26T09:56:53.860Z,1.50
2019-04-26T09:59:21.252Z,1.77
2019-04-26T10:01:48.720Z,1.77
2019-04-26T10:04:16.113Z,2.00
2019-04-26T10:06:43.521Z,2.27
2019-04-26T10:09:17.187Z,1.67
2019-04-26T10:11:43.512Z,2.37
2019-04-26T10:14:08.691Z,1.30
2019-04-26T10:16:51.078Z,1.80
2019-04-26T10:19:18.479Z,1.60
2019-04-26T10:21:45.915Z,1.77
2019-04-26T10:24:13.373Z,1.70
2019-04-26T10:26:40.768Z,1.90
2019-04-26T10:29:08.177Z,1.57
2019-04-26T10:31:35.611Z,2.20
2019-04-26T10:34:03.382Z,1.70
2019-04-26T10:36:31.487Z,1.47
2019-04-26T10:38:58.621Z,1.70
2019-04-26T10:41:25.694Z,1.60
2019-04-26T10:43:53.105Z,1.60
2019-04-26T10:46:20.543Z,1.40
2019-04-26T10:48:49.726Z,1.70
2019-04-26T10:51:15.395Z,1.50
2019-04-26T10:53:50.431Z,1.60
2019-04-26T10:56:25.387Z,1.60
2019-04-26T10:58:55.632Z,1.63
2019-04-26T11:01:23.096Z,1.10
2019-04-26T11:03:50.506Z,1.40
2019-04-26T11:06:17.938Z,1.30
2019-04-26T11:08:45.352Z,1.30
2019-04-26T11:11:12.792Z,1.60
2019-04-26T11:13:40.206Z,1.83
2019-04-26T11:16:08.937Z,2.33
2019-04-26T11:18:35.095Z,1.50
2019-04-26T11:21:02.509Z,1.90
2019-04-26T11:23:29.967Z,1.60
2019-04-26T11:25:57.914Z,1.83
2019-04-26T11:28:24.818Z,2.00
2019-04-26T11:30:54.784Z,1.70
2019-04-26T11:33:19.667Z,2.23
2019-04-26T11:35:47.112Z,2.00
2019-04-26T11:38:14.590Z,1.90
2019-04-26T11:40:44.336Z,1.70
2019-04-26T11:43:09.408Z,1.40
2019-04-26T11:45:36.837Z,1.70
2019-04-26T11:48:04.276Z,1.50
2019-04-26T11:50:31.679Z,1.67
2019-04-26T11:52:59.136Z,1.50
2019-04-26T11:55:29.790Z,1.47
2019-04-26T11:57:53.963Z,1.77
2019-04-26T12:00:23.927Z,2.13
2019-04-26T12:02:52.275Z,1.50
2019-04-26T12:05:27.928Z,2.00
2019-04-26T12:08:04.212Z,2.03
2019-04-26T12:10:31.658Z,1.70
2019-04-26T12:13:05.639Z,1.60
2019-04-26T12:15:30.409Z,1.47
2019-04-26T12:17:58.883Z,1.00
2019-04-26T12:20:22.388Z,1.20
2019-04-26T12:22:48.803Z,1.00
2019-04-26T12:25:16.228Z,1.20
2019-04-26T12:27:43.742Z,1.10
2019-04-26T12:30:11.081Z,1.37
2019-04-26T12:32:38.479Z,1.40
2019-04-26T12:35:05.917Z,1.30
2019-04-26T12:37:33.322Z,1.30
2019-04-26T12:40:00.771Z,1.20
2019-04-26T12:42:28.169Z,1.37
2019-04-26T12:45:04.762Z,1.10
2019-04-26T12:47:34.603Z,1.60
2019-04-26T12:50:00.518Z,1.33
2019-04-26T12:52:27.825Z,2.00
2019-04-26T12:54:57.609Z,1.67
2019-04-26T12:57:22.673Z,1.43
2019-04-26T12:59:50.109Z,1.70
2019-04-26T13:02:20.976Z,1.40
2019-04-26T13:04:45.381Z,1.70
2019-04-26T13:07:22.759Z,1.53
2019-04-26T13:09:39.802Z,1.60
2019-04-26T13:12:26.009Z,1.57
2019-04-26T13:15:02.151Z,1.43
2019-04-26T13:17:41.872Z,1.70
2019-04-26T13:20:09.283Z,1.30
2019-04-26T13:22:46.014Z,1.20
2019-04-26T13:25:04.127Z,1.63
2019-04-26T13:27:31.569Z,2.33
2019-04-26T13:30:02.423Z,1.70
2019-04-26T13:32:26.478Z,1.80
2019-04-26T13:34:53.849Z,1.60
2019-04-26T13:37:21.251Z,1.60
2019-04-26T13:39:51.242Z,1.53
2019-04-26T13:42:17.558Z,1.63
2019-04-26T13:44:55.615Z,1.70
2019-04-26T13:47:32.243Z,1.70
2019-04-26T13:50:02.358Z,1.40
2019-04-26T13:52:29.779Z,1.20
2019-04-26T13:54:57.182Z,1.80
2019-04-26T13:57:24.698Z,1.30
2019-04-26T13:59:52.062Z,1.30
2019-04-26T14:02:19.470Z,1.20
2019-04-26T14:04:46.950Z,1.20
2019-04-26T14:07:14.357Z,1.27
2019-04-26T14:09:41.800Z,1.80
2019-04-26T14:12:18.381Z,1.80
2019-04-26T14:14:36.666Z,1.40
2019-04-26T14:17:04.130Z,1.57
2019-04-26T14:19:31.571Z,1.27
2019-04-26T14:21:59.023Z,1.30
2019-04-26T14:24:26.426Z,1.40
2019-04-26T14:26:53.861Z,1.50
2019-04-26T14:29:21.286Z,1.47
2019-04-26T14:31:51.373Z,1.83
2019-04-26T14:34:16.160Z,1.30
2019-04-26T14:36:43.782Z,1.33
2019-04-26T14:39:14.882Z,1.37
2019-04-26T14:41:38.503Z,1.23
2019-04-26T14:44:15.290Z,1.50
2019-04-26T14:46:33.291Z,0.90
2019-04-26T14:49:03.900Z,1.27
2019-04-26T14:51:28.182Z,1.30
2019-04-26T14:53:55.657Z,1.13
2019-04-26T14:56:24.586Z,1.30
2019-04-26T14:58:52.186Z,1.37
2019-04-26T15:01:17.921Z,1.43
2019-04-26T15:04:03.681Z,1.40
2019-04-26T15:06:32.213Z,1.30
2019-04-26T15:08:58.579Z,1.30
2019-04-26T15:11:26.028Z,1.50
2019-04-26T15:13:53.445Z,1.00
2019-04-26T15:16:22.732Z,1.40
2019-04-26T15:18:48.329Z,1.50
2019-04-26T15:21:15.736Z,1.17
2019-04-26T15:23:43.181Z,1.07
2019-04-26T15:26:10.641Z,1.20
2019-04-26T15:28:38.087Z,0.97
2019-04-26T15:31:05.541Z,1.10
2019-04-26T15:33:35.779Z,1.40
2019-04-26T15:36:02.094Z,1.03
2019-04-26T15:38:27.853Z,1.10
2019-04-26T15:40:58.184Z,1.07
2019-04-26T15:43:28.126Z,1.00
2019-04-26T15:46:13.902Z,1.20
2019-04-26T15:48:54.601Z,0.93
2019-04-26T15:51:20.084Z,1.20
2019-04-26T15:53:48.776Z,1.07
2019-04-26T15:56:14.634Z,1.10
2019-04-26T15:58:47.180Z,1.20
2019-04-26T16:01:10.782Z,1.10
2019-04-26T16:03:36.869Z,2.20
2019-04-26T16:06:07.038Z,1.20
2019-04-26T16:08:33.520Z,1.00
2019-04-26T16:10:57.474Z,1.50
2019-04-26T16:13:24.927Z,0.80
2019-04-26T16:15:52.334Z,1.20
2019-04-26T16:18:19.784Z,1.03
2019-04-26T16:20:47.198Z,1.00
2019-04-26T16:23:14.604Z,1.17
2019-04-26T16:25:42.837Z,0.80
2019-04-26T16:28:30.680Z,0.80
2019-04-26T16:31:02.470Z,0.90
2019-04-26T16:33:33.347Z,0.90
2019-04-26T16:35:57.399Z,0.93
2019-04-26T16:38:33.092Z,1.10
2019-04-26T16:40:59.626Z,1.13
2019-04-26T16:43:37.679Z,1.00
2019-04-26T16:45:54.441Z,0.80
2019-04-26T16:48:25.557Z,1.47
2019-04-26T16:50:49.382Z,0.97
2019-04-26T16:53:42.577Z,0.90
2019-04-26T16:55:52.198Z,0.93
2019-04-26T16:58:12.696Z,0.70
2019-04-26T17:00:50.274Z,0.87
2019-04-26T17:03:07.918Z,0.93
2019-04-26T17:05:47.480Z,0.83
2019-04-26T17:08:05.168Z,0.70
2019-04-26T17:10:28.840Z,1.27
2019-04-26T17:12:56.251Z,1.00
2019-04-26T17:15:24.272Z,0.90
2019-04-26T17:17:52.606Z,0.87
2019-04-26T17:20:18.546Z,1.10
2019-04-26T17:22:57.001Z,0.97
2019-04-26T17:25:34.354Z,0.80
2019-04-26T17:28:03.440Z,0.97
2019-04-26T17:30:34.558Z,0.90
2019-04-26T17:32:56.654Z,0.97
2019-04-26T17:35:25.472Z,1.00
2019-04-26T17:37:51.489Z,0.90
2019-04-26T17:40:23.616Z,1.20
2019-04-26T17:42:46.386Z,1.17
2019-04-26T17:45:13.830Z,1.10
2019-04-26T17:47:42.420Z,1.00
2019-04-26T17:50:08.639Z,1.10
2019-04-26T17:52:37.656Z,1.00
2019-04-26T17:55:03.555Z,0.90
2019-04-26T17:57:34.682Z,1.40
2019-04-26T18:00:07.160Z,1.07
2019-04-26T18:02:41.251Z,1.10
2019-04-26T18:05:00.564Z,1.00
2019-04-26T18:07:39.710Z,0.90
2019-04-26T18:09:48.208Z,1.00
2019-04-26T18:12:15.622Z,0.93
2019-04-26T18:14:43.063Z,1.10
2019-04-26T18:17:10.501Z,1.03
2019-04-26T18:19:49.881Z,1.10
2019-04-26T18:22:17.332Z,1.10
2019-04-26T18:24:44.745Z,1.10
2019-04-26T18:27:12.193Z,1.07
2019-04-26T18:29:39.638Z,1.10
2019-04-26T18:32:07.082Z,1.17
2019-04-26T18:34:40.081Z,1.07
2019-04-26T18:37:06.799Z,1.10
2019-04-26T18:39:29.777Z,1.13
2019-04-26T18:41:58.266Z,1.47
2019-04-26T18:44:35.893Z,1.47
2019-04-26T18:46:53.463Z,0.93
2019-04-26T18:49:22.806Z,1.30
2019-04-26T18:51:48.311Z,1.10
2019-04-26T18:54:17.708Z,1.30
2019-04-26T18:56:41.426Z,1.30
2019-04-26T18:59:11.845Z,1.40
2019-04-26T19:01:40.912Z,1.60
2019-04-26T19:04:09.528Z,1.50
2019-04-26T19:06:33.545Z,1.20
2019-04-26T19:09:04.116Z,1.40
2019-04-26T19:11:26.068Z,1.40
2019-04-26T19:14:06.482Z,1.23
2019-04-26T19:16:32.764Z,1.10
2019-04-26T19:19:03.416Z,1.13
2019-04-26T19:21:39.099Z,1.10
2019-04-26T19:24:07.288Z,1.63
2019-04-26T19:26:32.969Z,1.50
2019-04-26T19:28:55.885Z,1.70
2019-04-26T19:31:26.926Z,1.83
2019-04-26T19:33:51.596Z,2.17
2019-04-26T19:36:22.715Z,2.40
2019-04-26T19:38:49.909Z,1.70
2019-04-26T19:41:12.982Z,1.40
2019-04-26T19:43:43.528Z,1.23
2019-04-26T19:46:23.387Z,1.10
2019-04-26T19:49:05.657Z,1.10
2019-04-26T19:51:35.900Z,1.00
2019-04-26T19:54:15.304Z,1.20
2019-04-26T19:56:52.017Z,1.30
2019-04-26T19:59:19.435Z,1.10
2019-04-26T20:01:46.899Z,1.10
2019-04-26T20:04:14.321Z,1.23
2019-04-26T20:06:41.772Z,1.10
2019-04-26T20:09:09.174Z,1.30
2019-04-26T20:11:36.672Z,1.37
2019-04-26T20:14:04.093Z,1.60
2019-04-26T20:16:32.455Z,1.60
2019-04-26T20:18:59.030Z,1.43
2019-04-26T20:21:26.425Z,1.60
2019-04-26T20:23:54.561Z,1.33
2019-04-26T20:26:22.613Z,2.90
2019-04-26T20:28:48.693Z,1.73
2019-04-26T20:31:18.847Z,1.73
2019-04-26T20:33:47.735Z,1.80
2019-04-26T20:36:13.767Z,1.40
2019-04-26T20:38:45.646Z,1.90
2019-04-26T20:41:08.736Z,1.60
2019-04-26T20:43:42.137Z,1.70
2019-04-26T20:46:14.026Z,1.43
2019-04-26T20:48:33.120Z,1.57
2019-04-26T20:50:58.399Z,2.00
2019-04-26T20:53:25.846Z,1.83
2019-04-26T20:55:53.288Z,1.50
2019-04-26T20:58:21.028Z,1.90
2019-04-26T21:00:54.381Z,2.03
2019-04-26T21:03:23.755Z,2.30
2019-04-26T21:05:46.497Z,2.50
2019-04-26T21:08:12.356Z,2.57
2019-04-26T21:10:38.178Z,2.67
2019-04-26T21:13:05.640Z,2.30
2019-04-26T21:15:35.883Z,2.10
2019-04-26T21:18:02.747Z,2.03
2019-04-26T21:20:32.106Z,2.30
2019-04-26T21:22:57.591Z,2.13
2019-04-26T21:25:27.695Z,2.10
2019-04-26T21:27:53.076Z,2.70
2019-04-26T21:30:23.141Z,3.13
2019-04-26T21:32:57.677Z,2.80
2019-04-26T21:35:24.991Z,2.50
2019-04-26T21:37:56.784Z,2.43
2019-04-26T21:40:30.109Z,2.10
2019-04-26T21:42:59.599Z,2.23
2019-04-26T21:45:28.400Z,2.70
2019-04-26T21:47:54.206Z,7.20
2019-04-26T21:50:19.814Z,4.33
2019-04-26T21:52:47.215Z,2.90
2019-04-26T21:55:16.644Z,2.60
2019-04-26T21:57:43.862Z,2.17
2019-04-26T22:00:09.593Z,2.27
2019-04-26T22:02:37.599Z,2.57
2019-04-26T22:05:07.999Z,2.13
2019-04-26T22:07:32.834Z,2.43
2019-04-26T22:10:09.288Z,2.33
2019-04-26T22:12:32.869Z,2.20
2019-04-26T22:15:09.181Z,1.70
2019-04-26T22:17:40.575Z,1.97
2019-04-26T22:20:13.025Z,2.10
2019-04-26T22:22:37.499Z,2.10
2019-04-26T22:25:04.470Z,1.80
2019-04-26T22:27:31.888Z,1.87
2019-04-26T22:29:59.319Z,1.90
2019-04-26T22:32:26.761Z,2.13
2019-04-26T22:34:54.162Z,2.10
2019-04-26T22:37:29.537Z,2.20
2019-04-26T22:39:49.077Z,2.30
2019-04-26T22:42:16.505Z,2.30
2019-04-26T22:44:43.973Z,2.33
2019-04-26T22:47:20.374Z,2.70
2019-04-26T22:49:47.837Z,2.30
2019-04-26T22:52:16.392Z,2.50
2019-04-26T22:54:46.415Z,2.63
2019-04-26T22:57:14.802Z,2.53
2019-04-26T22:59:38.074Z,2.50
2019-04-26T23:02:04.980Z,2.63
2019-04-26T23:04:33.044Z,2.20
2019-04-26T23:06:59.891Z,2.57
2019-04-26T23:09:27.339Z,2.60
2019-04-26T23:12:00.421Z,2.97
2019-04-26T23:14:43.893Z,2.80
2019-04-26T23:17:27.213Z,2.53
2019-04-26T23:19:54.259Z,2.90
2019-04-26T23:22:20.213Z,3.23
2019-04-26T23:24:49.200Z,2.70
2019-04-26T23:27:20.564Z,2.70
2019-04-26T23:29:43.577Z,3.00
2019-04-26T23:32:12.136Z,3.13
2019-04-26T23:34:37.398Z,3.20
2019-04-26T23:37:04.841Z,2.97
2019-04-26T23:39:32.784Z,3.10
2019-04-26T23:41:59.709Z,3.00
2019-04-26T23:44:27.118Z,3.03
2019-04-26T23:47:01.042Z,3.33
2019-04-26T23:49:23.322Z,3.03
2019-04-26T23:51:49.390Z,3.43
2019-04-26T23:54:16.842Z,3.33
2019-04-26T23:56:44.255Z,3.10
2019-04-26T23:59:15.022Z,2.70
